createdAt,value
2023-02-17T00:02:00.065Z,98277.03
2023-02-17T00:04:31.895Z,98293.31
2023-02-17T00:07:05.006Z,98288.41
2023-02-17T00:09:35.302Z,98282.88
2023-02-17T00:12:05.832Z,98274.38
2023-02-17T00:14:36.366Z,98275.94
2023-02-17T00:17:06.888Z,98272.09
2023-02-17T00:19:37.483Z,98281.00
2023-02-17T00:22:10.798Z,98269.94
2023-02-17T00:24:43.605Z,98283.53
2023-02-17T00:27:14.650Z,98282.78
2023-02-17T00:29:45.094Z,98272.38
2023-02-17T00:32:15.657Z,98273.50
2023-02-17T00:34:46.220Z,98265.41
2023-02-17T00:37:19.960Z,98262.75
2023-02-17T00:39:50.366Z,98258.34
2023-02-17T00:42:22.818Z,98260.16
2023-02-17T00:44:53.189Z,98252.31
2023-02-17T00:47:24.419Z,98243.06
2023-02-17T00:49:54.886Z,98244.59
2023-02-17T00:52:28.195Z,98239.34
2023-02-17T00:54:58.720Z,98234.06
2023-02-17T00:57:32.524Z,98242.06
2023-02-17T01:00:02.941Z,98243.66
2023-02-17T01:02:33.406Z,98229.78
2023-02-17T01:05:03.910Z,98228.28
2023-02-17T01:07:37.531Z,98232.25
2023-02-17T01:10:09.670Z,98227.06
2023-02-17T01:12:40.043Z,98220.59
2023-02-17T01:15:11.710Z,98221.03
2023-02-17T01:17:42.135Z,98212.47
2023-02-17T01:20:13.760Z,98224.28
2023-02-17T01:22:46.796Z,98224.63
2023-02-17T01:25:17.086Z,98212.34
2023-02-17T01:27:47.638Z,98217.56
2023-02-17T01:30:18.912Z,98216.88
2023-02-17T01:32:49.307Z,98220.00
2023-02-17T01:35:20.018Z,98211.88
2023-02-17T01:37:55.783Z,98213.25
2023-02-17T01:40:27.531Z,98208.66
2023-02-17T01:42:58.048Z,98204.19
2023-02-17T01:45:40.084Z,98195.88
2023-02-17T01:48:15.704Z,98199.56
2023-02-17T01:50:50.327Z,98191.56
2023-02-17T01:53:32.322Z,98188.66
2023-02-17T01:56:03.036Z,98185.16
2023-02-17T01:58:34.918Z,98185.00
2023-02-17T02:01:09.399Z,98170.56
2023-02-17T02:03:41.518Z,98162.25
2023-02-17T02:06:21.838Z,98160.19
2023-02-17T02:09:00.198Z,98162.38
2023-02-17T02:11:32.511Z,98160.03
2023-02-17T02:14:04.527Z,98152.81
2023-02-17T02:16:43.034Z,98161.88
2023-02-17T02:19:43.326Z,98159.56
2023-02-17T02:22:43.705Z,98147.59
2023-02-17T02:25:43.239Z,98145.19
2023-02-17T02:28:29.833Z,98151.13
2023-02-17T02:31:23.700Z,98150.06
2023-02-17T02:34:02.015Z,98143.09
2023-02-17T02:36:37.062Z,98147.13
2023-02-17T02:39:14.542Z,98142.66
2023-02-17T02:41:49.782Z,98134.81
2023-02-17T02:44:23.913Z,98123.59
2023-02-17T02:47:02.258Z,98134.47
2023-02-17T02:49:38.763Z,98129.56
2023-02-17T02:52:19.158Z,98135.06
2023-02-17T02:55:00.676Z,98133.84
2023-02-17T02:57:47.186Z,98115.72
2023-02-17T03:00:25.498Z,98106.22
2023-02-17T03:03:04.555Z,98107.16
2023-02-17T03:05:50.730Z,98103.31
2023-02-17T03:08:29.476Z,98104.22
2023-02-17T03:11:00.086Z,98093.50
2023-02-17T03:13:30.628Z,98093.44
2023-02-17T03:16:01.452Z,98110.34
2023-02-17T03:18:35.105Z,98097.44
2023-02-17T03:21:15.603Z,98089.47
2023-02-17T03:23:46.500Z,98093.78
2023-02-17T03:26:16.954Z,98093.94
2023-02-17T03:28:49.413Z,98101.13
2023-02-17T03:31:20.136Z,98113.41
2023-02-17T03:33:50.627Z,98086.03
2023-02-17T03:36:23.606Z,98089.56
2023-02-17T03:38:54.328Z,98079.28
2023-02-17T03:41:24.872Z,98086.19
2023-02-17T03:43:55.344Z,98086.19
2023-02-17T03:46:25.765Z,98097.38
2023-02-17T03:48:56.181Z,98081.88
2023-02-17T03:51:29.727Z,98103.94
2023-02-17T03:54:00.079Z,98094.06
2023-02-17T03:56:30.587Z,98081.09
2023-02-17T03:59:01.136Z,98093.66
2023-02-17T04:01:31.684Z,98094.72
2023-02-17T04:04:02.116Z,98092.31
2023-02-17T04:06:35.179Z,98096.44
2023-02-17T04:09:05.705Z,98096.56
2023-02-17T04:11:36.163Z,98102.31
2023-02-17T04:14:06.689Z,98104.06
2023-02-17T04:16:39.207Z,98090.97
2023-02-17T04:19:09.671Z,98100.44
2023-02-17T04:21:42.763Z,98109.31
2023-02-17T04:24:13.097Z,98106.72
2023-02-17T04:26:43.455Z,98090.97
2023-02-17T04:29:13.915Z,98080.50
2023-02-17T04:31:44.485Z,98085.03
2023-02-17T04:34:14.859Z,98087.22
2023-02-17T04:36:47.783Z,98080.38
2023-02-17T04:39:18.116Z,98078.44
2023-02-17T04:41:48.548Z,98078.63
2023-02-17T04:44:18.920Z,98076.81
2023-02-17T04:46:49.249Z,98080.25
2023-02-17T04:49:19.583Z,98084.09
2023-02-17T04:51:52.517Z,98073.88
2023-02-17T04:54:22.976Z,98061.31
2023-02-17T04:56:53.384Z,98065.09
2023-02-17T04:59:25.591Z,98076.13
2023-02-17T05:01:55.973Z,98077.94
2023-02-17T05:04:26.352Z,98074.25
2023-02-17T05:06:59.377Z,98074.72
2023-02-17T05:09:30.138Z,98070.88
2023-02-17T05:12:00.551Z,98061.19
2023-02-17T05:14:31.240Z,98059.63
2023-02-17T05:17:01.553Z,98062.25
2023-02-17T05:19:31.996Z,98055.41
2023-02-17T05:22:04.999Z,98061.19
2023-02-17T05:24:37.516Z,98045.44
2023-02-17T05:27:08.989Z,98045.25
2023-02-17T05:29:39.663Z,98033.94
2023-02-17T05:32:10.235Z,98032.56
2023-02-17T05:34:40.994Z,98046.38
2023-02-17T05:37:14.363Z,98042.56
2023-02-17T05:39:44.703Z,98051.81
2023-02-17T05:42:15.106Z,98043.72
2023-02-17T05:44:45.435Z,98057.19
2023-02-17T05:47:15.736Z,98042.28
2023-02-17T05:49:46.148Z,98036.69
2023-02-17T05:52:19.543Z,98049.28
2023-02-17T05:54:49.926Z,98050.19
2023-02-17T05:57:20.300Z,98035.72
2023-02-17T05:59:50.716Z,98050.03
2023-02-17T06:02:21.355Z,98048.41
2023-02-17T06:04:52.000Z,98048.69
2023-02-17T06:07:25.491Z,98049.31
2023-02-17T06:09:55.814Z,98052.38
2023-02-17T06:12:26.170Z,98051.50
2023-02-17T06:14:56.612Z,98047.31
2023-02-17T06:17:26.955Z,98048.56
2023-02-17T06:19:57.315Z,98048.38
2023-02-17T06:22:30.257Z,98044.25
2023-02-17T06:25:00.593Z,98043.47
2023-02-17T06:27:30.922Z,98054.34
2023-02-17T06:30:01.333Z,98042.25
2023-02-17T06:32:31.848Z,98050.84
2023-02-17T06:35:02.274Z,98058.09
2023-02-17T06:37:35.279Z,98062.53
2023-02-17T06:40:05.632Z,98060.06
2023-02-17T06:42:35.999Z,98058.56
2023-02-17T06:45:07.244Z,98068.25
2023-02-17T06:47:37.862Z,98068.00
2023-02-17T06:50:10.777Z,98071.69
2023-02-17T06:52:43.707Z,98070.75
2023-02-17T06:55:14.385Z,98062.75
2023-02-17T06:57:44.931Z,98065.50
2023-02-17T07:00:16.530Z,98063.41
2023-02-17T07:02:46.953Z,98065.25
2023-02-17T07:05:17.621Z,98057.72
2023-02-17T07:07:53.257Z,98082.13
2023-02-17T07:10:23.742Z,98070.13
2023-02-17T07:12:54.629Z,98066.16
2023-02-17T07:15:25.216Z,98067.53
2023-02-17T07:17:55.582Z,98075.69
2023-02-17T07:20:25.965Z,98081.28
2023-02-17T07:22:59.066Z,98061.78
2023-02-17T07:25:29.663Z,98061.31
2023-02-17T07:28:00.026Z,98063.75
2023-02-17T07:30:30.642Z,98060.66
2023-02-17T07:33:01.154Z,98056.25
2023-02-17T07:35:31.660Z,98051.94
2023-02-17T07:38:04.899Z,98047.03
2023-02-17T07:40:35.291Z,98037.22
2023-02-17T07:43:05.956Z,98033.75
2023-02-17T07:45:37.394Z,98045.13
2023-02-17T07:48:08.490Z,98019.66
2023-02-17T07:50:38.534Z,98018.91
2023-02-17T07:53:11.557Z,98019.66
2023-02-17T07:55:41.867Z,98012.03
2023-02-17T07:58:12.171Z,98019.38
2023-02-17T08:00:42.470Z,98011.44
2023-02-17T08:03:12.866Z,98020.16
2023-02-17T08:05:44.441Z,98028.78
2023-02-17T08:08:29.707Z,98025.53
2023-02-17T08:11:16.708Z,98020.16
2023-02-17T08:13:48.306Z,98027.06
2023-02-17T08:16:18.611Z,98030.78
2023-02-17T08:18:48.987Z,98040.94
2023-02-17T08:21:19.276Z,98030.81
2023-02-17T08:23:52.225Z,98027.41
2023-02-17T08:26:22.810Z,98044.00
2023-02-17T08:28:53.240Z,98038.34
2023-02-17T08:31:26.493Z,98039.22
2023-02-17T08:33:57.405Z,98040.63
2023-02-17T08:36:28.114Z,98037.84
2023-02-17T08:39:02.186Z,98033.59
2023-02-17T08:41:35.865Z,98052.31
2023-02-17T08:44:10.901Z,98030.22
2023-02-17T08:46:41.760Z,98035.72
2023-02-17T08:49:12.377Z,98037.88
2023-02-17T08:51:42.990Z,98029.00
2023-02-17T08:54:16.748Z,98031.16
2023-02-17T08:56:47.476Z,98019.16
2023-02-17T08:59:18.166Z,98024.72
2023-02-17T09:01:48.658Z,98019.47
2023-02-17T09:04:20.049Z,98018.41
2023-02-17T09:06:53.963Z,98019.53
2023-02-17T09:09:29.798Z,98013.06
2023-02-17T09:12:01.646Z,98012.44
2023-02-17T09:14:32.303Z,98006.94
2023-02-17T09:17:03.034Z,98008.91
2023-02-17T09:19:33.431Z,98005.84
2023-02-17T09:22:03.782Z,98006.13
2023-02-17T09:24:38.908Z,98000.03
2023-02-17T09:27:09.427Z,97985.19
2023-02-17T09:29:40.892Z,97995.44
2023-02-17T09:32:12.522Z,97987.78
2023-02-17T09:34:43.570Z,97982.75
2023-02-17T09:37:17.684Z,97978.41
2023-02-17T09:39:51.939Z,97973.50
2023-02-17T09:42:26.176Z,97973.59
2023-02-17T09:45:04.109Z,97967.63
2023-02-17T09:47:40.922Z,97956.03
2023-02-17T09:50:15.364Z,97960.72
2023-02-17T09:52:53.786Z,97953.25
2023-02-17T09:55:31.730Z,97959.56
2023-02-17T09:58:07.130Z,97955.06
2023-02-17T10:00:42.909Z,97960.47
2023-02-17T10:03:19.189Z,97951.25
2023-02-17T10:05:54.850Z,97952.88
2023-02-17T10:08:29.718Z,97959.44
2023-02-17T10:11:08.625Z,97958.38
2023-02-17T10:13:40.893Z,97937.63
2023-02-17T10:16:19.080Z,97944.53
2023-02-17T10:18:55.091Z,97950.19
2023-02-17T10:21:31.976Z,97948.41
2023-02-17T10:24:02.425Z,97945.22
2023-02-17T10:26:56.113Z,97942.91
2023-02-17T10:29:40.605Z,97920.72
2023-02-17T10:32:25.321Z,97924.91
2023-02-17T10:35:14.308Z,97900.31
2023-02-17T10:37:50.584Z,97913.00
2023-02-17T10:40:24.489Z,97910.66
2023-02-17T10:43:06.260Z,97891.25
2023-02-17T10:45:41.524Z,97899.06
2023-02-17T10:48:16.807Z,97894.06
2023-02-17T10:50:49.197Z,97885.41
2023-02-17T10:53:23.083Z,97875.75
2023-02-17T10:56:04.389Z,97867.22
2023-02-17T10:58:44.651Z,97882.72
2023-02-17T11:01:15.889Z,97881.81
2023-02-17T11:03:46.273Z,97867.72
2023-02-17T11:06:22.379Z,97863.06
2023-02-17T11:08:55.809Z,97852.72
2023-02-17T11:11:28.369Z,97861.41
2023-02-17T11:14:13.860Z,97854.28
2023-02-17T11:16:47.681Z,97854.28
2023-02-17T11:19:28.732Z,97836.31
2023-02-17T11:22:01.930Z,97848.47
2023-02-17T11:24:34.938Z,97838.31
2023-02-17T11:27:08.209Z,97841.16
2023-02-17T11:29:41.260Z,97833.50
2023-02-17T11:32:15.154Z,97819.16
2023-02-17T11:34:47.296Z,97826.47
2023-02-17T11:37:27.180Z,97821.91
2023-02-17T11:40:00.355Z,97821.25
2023-02-17T11:42:34.275Z,97818.88
2023-02-17T11:45:21.610Z,97805.00
2023-02-17T11:48:09.984Z,97810.16
2023-02-17T11:50:47.886Z,97805.19
2023-02-17T11:53:40.549Z,97799.06
2023-02-17T11:56:20.108Z,97778.50
2023-02-17T11:59:15.098Z,97786.84
2023-02-17T12:02:05.572Z,97780.63
2023-02-17T12:04:37.515Z,97779.41
2023-02-17T12:07:31.318Z,97777.56
2023-02-17T12:10:08.834Z,97773.25
2023-02-17T12:12:59.005Z,97770.69
2023-02-17T12:15:47.380Z,97788.94
2023-02-17T12:18:40.342Z,97779.75
2023-02-17T12:21:18.860Z,97767.72
2023-02-17T12:24:20.911Z,97785.59
2023-02-17T12:26:56.976Z,97773.66
2023-02-17T12:29:45.582Z,97762.84
2023-02-17T12:32:36.238Z,97768.13
2023-02-17T12:35:21.413Z,97755.19
2023-02-17T12:37:57.924Z,97782.75
2023-02-17T12:40:38.756Z,97770.69
2023-02-17T12:43:20.634Z,97763.13
2023-02-17T12:45:52.546Z,97773.09
2023-02-17T12:48:31.521Z,97784.34
2023-02-17T12:51:12.489Z,97757.97
2023-02-17T12:53:50.412Z,97751.84
2023-02-17T12:56:46.332Z,97741.72
2023-02-17T12:59:21.217Z,97748.69
2023-02-17T13:01:58.436Z,97747.84
2023-02-17T13:04:30.161Z,97749.53
2023-02-17T13:07:20.300Z,97717.59
2023-02-17T13:09:52.872Z,97719.72
2023-02-17T13:12:43.955Z,97711.69
2023-02-17T13:15:35.022Z,97719.56
2023-02-17T13:18:08.998Z,97710.50
2023-02-17T13:21:00.471Z,97712.38
2023-02-17T13:23:39.680Z,97703.16
2023-02-17T13:26:37.125Z,97696.81
2023-02-17T13:29:24.931Z,97711.66
2023-02-17T13:31:58.292Z,97709.31
2023-02-17T13:34:36.356Z,97682.84
2023-02-17T13:37:22.899Z,97730.31
2023-02-17T13:39:58.021Z,97706.63
2023-02-17T13:42:42.318Z,97725.53
2023-02-17T13:45:25.732Z,97708.03
2023-02-17T13:47:59.309Z,97694.50
2023-02-17T13:50:35.042Z,97708.38
2023-02-17T13:53:23.050Z,97694.25
2023-02-17T13:55:58.082Z,97726.09
2023-02-17T13:58:31.637Z,97722.72
2023-02-17T14:01:04.385Z,97695.56
2023-02-17T14:03:44.005Z,97694.88
2023-02-17T14:06:25.171Z,97697.56
2023-02-17T14:08:55.269Z,97692.91
2023-02-17T14:11:33.028Z,97675.22
2023-02-17T14:14:04.445Z,97682.31
2023-02-17T14:16:37.282Z,97700.81
2023-02-17T14:19:10.708Z,97686.81
2023-02-17T14:21:43.686Z,97688.88
2023-02-17T14:24:30.117Z,97684.75
2023-02-17T14:27:05.861Z,97665.72
2023-02-17T14:29:45.183Z,97666.97
2023-02-17T14:32:32.286Z,97664.75
2023-02-17T14:35:24.872Z,97654.13
2023-02-17T14:37:55.331Z,97672.38
2023-02-17T14:40:28.105Z,97656.78
2023-02-17T14:43:01.345Z,97660.72
2023-02-17T14:45:31.714Z,97658.91
2023-02-17T14:48:02.084Z,97646.56
2023-02-17T14:50:34.245Z,97652.03
2023-02-17T14:53:04.607Z,97647.66
2023-02-17T14:55:39.740Z,97647.38
2023-02-17T14:58:20.494Z,97651.59
2023-02-17T15:00:51.923Z,97639.75
2023-02-17T15:03:22.503Z,97636.56
2023-02-17T15:05:53.189Z,97636.78
2023-02-17T15:08:26.849Z,97631.78
2023-02-17T15:10:57.156Z,97653.22
2023-02-17T15:13:31.860Z,97638.09
2023-02-17T15:16:02.703Z,97634.06
2023-02-17T15:18:33.156Z,97627.28
2023-02-17T15:21:03.575Z,97653.44
2023-02-17T15:23:37.375Z,97628.03
2023-02-17T15:26:12.354Z,97642.13
2023-02-17T15:28:45.348Z,97635.72
2023-02-17T15:31:17.427Z,97659.47
2023-02-17T15:33:48.461Z,97665.28
2023-02-17T15:36:20.082Z,97664.66
2023-02-17T15:38:50.413Z,97659.75
2023-02-17T15:41:24.616Z,97684.72
2023-02-17T15:43:59.268Z,97682.41
2023-02-17T15:46:34.058Z,97702.03
2023-02-17T15:49:04.672Z,97705.66
2023-02-17T15:51:35.159Z,97708.72
2023-02-17T15:54:05.606Z,97711.28
2023-02-17T15:56:47.375Z,97707.41
2023-02-17T15:59:25.388Z,97707.41
2023-02-17T16:01:56.392Z,97704.81
2023-02-17T16:04:26.545Z,97711.63
2023-02-17T16:06:56.951Z,97709.63
2023-02-17T16:09:27.501Z,97719.66
2023-02-17T16:11:58.350Z,97701.75
2023-02-17T16:14:38.138Z,97698.69
2023-02-17T16:17:17.714Z,97706.84
2023-02-17T16:19:48.043Z,97696.28
2023-02-17T16:22:18.490Z,97705.09
2023-02-17T16:24:48.850Z,97697.47
2023-02-17T16:27:20.083Z,97695.94
2023-02-17T16:29:53.168Z,97664.84
2023-02-17T16:32:23.572Z,97689.81
2023-02-17T16:34:54.023Z,97684.28
2023-02-17T16:37:24.325Z,97684.53
2023-02-17T16:39:54.799Z,97685.13
2023-02-17T16:42:25.692Z,97691.00
2023-02-17T16:44:58.635Z,97673.69
2023-02-17T16:47:29.168Z,97677.22
2023-02-17T16:49:59.602Z,97652.25
2023-02-17T16:52:31.167Z,97675.47
2023-02-17T16:55:01.556Z,97656.53
2023-02-17T16:57:32.009Z,97661.81
2023-02-17T17:00:05.479Z,97677.97
2023-02-17T17:02:35.822Z,97664.31
2023-02-17T17:05:06.357Z,97664.31
2023-02-17T17:07:36.837Z,97664.59
2023-02-17T17:10:16.350Z,97654.53
2023-02-17T17:12:48.629Z,97667.44
2023-02-17T17:15:22.685Z,97681.81
2023-02-17T17:17:59.685Z,97657.13
2023-02-17T17:20:35.051Z,97658.44
2023-02-17T17:23:08.399Z,97690.28
2023-02-17T17:25:43.056Z,97661.06
2023-02-17T17:28:17.262Z,97687.50
2023-02-17T17:30:51.449Z,97660.97
2023-02-17T17:33:21.783Z,97670.38
2023-02-17T17:35:52.220Z,97675.69
2023-02-17T17:38:22.769Z,97671.50
2023-02-17T17:40:57.078Z,97669.44
2023-02-17T17:43:28.200Z,97677.53
2023-02-17T17:46:01.327Z,97674.94
2023-02-17T17:48:32.008Z,97671.50
2023-02-17T17:51:02.428Z,97668.44
2023-02-17T17:53:32.837Z,97679.31
2023-02-17T17:56:03.216Z,97692.44
2023-02-17T17:58:37.647Z,97704.59
2023-02-17T18:01:11.506Z,97692.50
2023-02-17T18:03:42.139Z,97686.19
2023-02-17T18:06:17.609Z,97684.88
2023-02-17T18:08:49.728Z,97690.81
2023-02-17T18:11:21.746Z,97673.63
2023-02-17T18:13:56.377Z,97699.38
2023-02-17T18:16:30.656Z,97715.81
2023-02-17T18:19:02.729Z,97733.75
2023-02-17T18:21:33.337Z,97715.81
2023-02-17T18:24:03.898Z,97705.00
2023-02-17T18:26:34.756Z,97725.66
2023-02-17T18:29:05.333Z,97712.47
2023-02-17T18:31:38.484Z,97724.84
2023-02-17T18:34:08.910Z,97713.19
2023-02-17T18:36:39.301Z,97717.59
2023-02-17T18:39:09.739Z,97727.28
2023-02-17T18:41:40.728Z,97711.13
2023-02-17T18:44:11.635Z,97731.53
2023-02-17T18:46:44.747Z,97734.78
2023-02-17T18:49:15.099Z,97733.75
2023-02-17T18:51:45.436Z,97724.16
2023-02-17T18:54:15.789Z,97739.47
2023-02-17T18:56:46.196Z,97756.03
2023-02-17T18:59:16.645Z,97736.81
2023-02-17T19:01:49.722Z,97739.69
2023-02-17T19:04:20.085Z,97731.16
2023-02-17T19:06:50.447Z,97754.50
2023-02-17T19:09:20.898Z,97735.00
2023-02-17T19:11:51.190Z,97756.34
2023-02-17T19:14:21.510Z,97739.59
2023-02-17T19:16:55.939Z,97738.84
2023-02-17T19:19:27.589Z,97739.81
2023-02-17T19:21:58.073Z,97746.28
2023-02-17T19:24:28.466Z,97764.06
2023-02-17T19:26:58.827Z,97778.97
2023-02-17T19:29:29.399Z,97781.19
2023-02-17T19:32:03.841Z,97810.66
2023-02-17T19:34:35.539Z,97812.09
2023-02-17T19:37:05.789Z,97822.59
2023-02-17T19:39:38.159Z,97846.63
2023-02-17T19:42:08.763Z,97834.16
2023-02-17T19:44:39.215Z,97857.22
2023-02-17T19:47:12.286Z,97842.28
2023-02-17T19:49:42.865Z,97849.31
2023-02-17T19:52:14.350Z,97840.91
2023-02-17T19:54:44.696Z,97838.75
2023-02-17T19:57:18.835Z,97817.91
2023-02-17T19:59:49.280Z,97841.19
2023-02-17T20:02:22.252Z,97847.50
2023-02-17T20:04:52.599Z,97845.19
2023-02-17T20:07:23.159Z,97857.13
2023-02-17T20:09:53.739Z,97866.19
2023-02-17T20:12:24.356Z,97847.56
2023-02-17T20:14:56.122Z,97863.44
2023-02-17T20:17:29.254Z,97859.59
2023-02-17T20:19:59.748Z,97854.63
2023-02-17T20:22:30.223Z,97859.59
2023-02-17T20:25:00.929Z,97851.69
2023-02-17T20:27:31.314Z,97844.03
2023-02-17T20:30:02.543Z,97868.00
2023-02-17T20:32:36.231Z,97865.53
2023-02-17T20:35:06.547Z,97864.31
2023-02-17T20:37:36.926Z,97869.38
2023-02-17T20:40:08.207Z,97877.31
2023-02-17T20:42:38.681Z,97876.09
2023-02-17T20:45:09.685Z,97902.75
2023-02-17T20:47:42.688Z,97888.41
2023-02-17T20:50:17.689Z,97877.94
2023-02-17T20:52:48.618Z,97889.94
2023-02-17T20:55:19.809Z,97871.50
2023-02-17T20:57:50.740Z,97869.66
2023-02-17T21:00:25.403Z,97874.09
2023-02-17T21:02:58.588Z,97874.56
2023-02-17T21:05:29.185Z,97885.94
2023-02-17T21:08:00.764Z,97888.41
2023-02-17T21:10:34.286Z,97878.56
2023-02-17T21:13:04.686Z,97877.63
2023-02-17T21:15:36.352Z,97880.41
2023-02-17T21:18:09.706Z,97878.16
2023-02-17T21:20:40.027Z,97884.75
2023-02-17T21:23:10.773Z,97885.09
2023-02-17T21:25:41.136Z,97888.94
2023-02-17T21:28:11.755Z,97901.44
2023-02-17T21:30:42.284Z,97904.50
2023-02-17T21:33:15.289Z,97912.06
2023-02-17T21:35:45.563Z,97913.75
2023-02-17T21:38:16.973Z,97915.94
2023-02-17T21:40:49.804Z,97914.72
2023-02-17T21:43:33.609Z,97923.03
2023-02-17T21:46:04.050Z,97930.13
2023-02-17T21:48:37.902Z,97932.44
2023-02-17T21:51:14.286Z,97941.66
2023-02-17T21:53:44.618Z,97946.69
2023-02-17T21:56:15.030Z,97955.63
2023-02-17T21:58:49.331Z,97958.19
2023-02-17T22:01:20.464Z,97957.75
2023-02-17T22:03:53.718Z,97958.97
2023-02-17T22:06:27.309Z,97974.38
2023-02-17T22:08:58.531Z,97971.41
2023-02-17T22:11:31.226Z,97974.63
2023-02-17T22:14:03.963Z,97979.97
2023-02-17T22:16:36.688Z,97972.72
2023-02-17T22:19:12.177Z,97968.72
2023-02-17T22:21:42.579Z,97989.47
2023-02-17T22:24:13.007Z,97981.16
2023-02-17T22:26:43.615Z,97980.75
2023-02-17T22:29:14.035Z,97981.19
2023-02-17T22:31:44.514Z,97984.63
2023-02-17T22:34:18.635Z,97980.16
2023-02-17T22:36:48.917Z,97978.63
2023-02-17T22:39:19.534Z,97983.97
2023-02-17T22:41:49.962Z,97977.31
2023-02-17T22:44:20.413Z,97973.97
2023-02-17T22:46:50.767Z,97977.31
2023-02-17T22:49:23.840Z,97978.22
2023-02-17T22:51:54.132Z,97986.28
2023-02-17T22:54:24.552Z,97982.28
2023-02-17T22:56:54.948Z,97981.03
2023-02-17T22:59:25.368Z,97986.13
2023-02-17T23:01:55.811Z,97988.25
2023-02-17T23:04:29.196Z,97990.56
2023-02-17T23:06:59.545Z,97982.19
2023-02-17T23:09:30.029Z,97994.94
2023-02-17T23:12:00.394Z,97988.75
2023-02-17T23:14:36.785Z,98000.03
2023-02-17T23:17:10.244Z,97994.00
2023-02-17T23:19:44.820Z,98005.84
2023-02-17T23:22:19.144Z,97996.75
2023-02-17T23:24:50.980Z,97991.41
2023-02-17T23:27:21.223Z,97997.03
2023-02-17T23:29:51.591Z,98020.50
2023-02-17T23:32:21.942Z,98007.88
2023-02-17T23:34:54.931Z,98017.81
2023-02-17T23:37:25.287Z,98025.22
2023-02-17T23:39:55.654Z,98023.41
2023-02-17T23:42:26.107Z,98025.75
2023-02-17T23:44:56.779Z,98044.22
2023-02-17T23:47:27.410Z,98047.47
2023-02-17T23:50:00.311Z,98029.00
2023-02-17T23:52:30.787Z,98046.56
2023-02-17T23:55:01.148Z,98034.56
2023-02-17T23:57:31.515Z,98035.94
